createdAt,value
2022-11-14T00:01:05.676Z,5.7
2022-11-14T00:06:07.702Z,5.7
2022-11-14T00:11:09.779Z,5.7
2022-11-14T00:16:11.987Z,5.7
2022-11-14T00:21:13.994Z,5.7
2022-11-14T00:26:15.946Z,5.8
2022-11-14T00:31:18.027Z,5.8
2022-11-14T00:36:20.049Z,5.8
2022-11-14T00:41:21.983Z,5.7
2022-11-14T00:46:23.990Z,5.8
2022-11-14T00:51:26.033Z,5.8
2022-11-14T00:56:28.020Z,5.7
2022-11-14T01:01:29.971Z,5.7
2022-11-14T01:06:32.036Z,5.6
2022-11-14T01:11:34.046Z,5.5
2022-11-14T01:16:36.163Z,5.5
2022-11-14T01:21:38.308Z,5.4
2022-11-14T01:26:40.484Z,5.5
2022-11-14T01:31:42.638Z,5.5
2022-11-14T01:36:44.695Z,5.5
2022-11-14T01:41:46.637Z,5.5
2022-11-14T01:46:48.640Z,5.4
2022-11-14T01:51:50.639Z,5.3
2022-11-14T01:56:52.593Z,5.3
2022-11-14T02:01:54.756Z,5.4
2022-11-14T02:06:56.975Z,5.5
2022-11-14T02:11:59.072Z,5.4
2022-11-14T02:17:31.561Z,5.2
2022-11-14T02:22:03.585Z,5.1
2022-11-14T02:27:06.479Z,5
2022-11-14T02:32:12.730Z,5.1
2022-11-14T02:37:15.072Z,5.1
2022-11-14T02:42:17.063Z,5.2
2022-11-14T02:47:19.540Z,5.1
2022-11-14T02:52:21.532Z,5
2022-11-14T02:57:23.526Z,5.1
2022-11-14T03:02:26.703Z,5.2
2022-11-14T03:07:29.164Z,5
2022-11-14T03:12:31.367Z,5
2022-11-14T03:17:33.570Z,5
2022-11-14T03:22:35.658Z,5.1
2022-11-14T03:27:37.692Z,5
2022-11-14T03:32:40.462Z,4.9
2022-11-14T03:37:42.658Z,4.9
2022-11-14T03:42:44.740Z,4.9
2022-11-14T03:47:47.192Z,4.9
2022-11-14T03:52:49.187Z,4.9
2022-11-14T03:57:51.181Z,4.9
2022-11-14T04:02:53.280Z,4.9
2022-11-14T04:07:55.544Z,4.9
2022-11-14T04:12:57.504Z,4.9
2022-11-14T04:17:59.984Z,4.8
2022-11-14T04:23:02.335Z,4.7
2022-11-14T04:28:04.349Z,4.9
2022-11-14T04:33:06.368Z,4.8
2022-11-14T04:38:08.505Z,4.8
2022-11-14T04:43:10.468Z,4.6
2022-11-14T04:48:12.495Z,4.5
2022-11-14T04:53:14.557Z,4.5
2022-11-14T04:58:16.488Z,4.6
2022-11-14T05:03:18.470Z,4.6
2022-11-14T05:08:20.596Z,4.9
2022-11-14T05:13:22.613Z,4.8
2022-11-14T05:18:24.858Z,4.8
2022-11-14T05:23:26.824Z,4.8
2022-11-14T05:28:30.072Z,4.7
2022-11-14T05:33:32.873Z,4.7
2022-11-14T05:38:34.961Z,4.9
2022-11-14T05:43:36.941Z,4.9
2022-11-14T05:48:38.964Z,4.8
2022-11-14T05:53:41.025Z,4.8
2022-11-14T05:58:43.071Z,4.8
2022-11-14T06:03:45.162Z,4.8
2022-11-14T06:08:47.124Z,4.8
2022-11-14T06:13:49.164Z,5
2022-11-14T06:18:51.245Z,5.1
2022-11-14T06:23:53.246Z,5.2
2022-11-14T06:28:55.744Z,5.4
2022-11-14T06:33:57.689Z,5.3
2022-11-14T06:39:00.048Z,5.5
2022-11-14T06:44:01.991Z,5.5
2022-11-14T06:49:04.159Z,5.6
2022-11-14T06:54:06.093Z,5.5
2022-11-14T06:59:08.129Z,5.8
2022-11-14T07:04:10.500Z,5.9
2022-11-14T07:09:12.581Z,6
2022-11-14T07:14:14.525Z,6.1
2022-11-14T07:19:16.597Z,6.3
2022-11-14T07:24:18.768Z,6.2
2022-11-14T07:29:21.015Z,6.3
2022-11-14T07:34:23.316Z,6.2
2022-11-14T07:39:25.576Z,6.3
2022-11-14T07:44:27.676Z,6.3
2022-11-14T07:49:29.649Z,6.4
2022-11-14T07:54:31.598Z,6.5
2022-11-14T07:59:33.613Z,6.7
2022-11-14T08:04:35.668Z,6.7
2022-11-14T08:09:37.981Z,6.7
2022-11-14T08:14:40.511Z,6.9
2022-11-14T08:19:42.535Z,6.9
2022-11-14T08:24:44.545Z,6.7
2022-11-14T08:29:46.580Z,6.8
2022-11-14T08:34:49.098Z,7.1
2022-11-14T08:39:51.328Z,7
2022-11-14T08:44:54.438Z,7.5
2022-11-14T08:49:57.025Z,7.6
2022-11-14T08:54:59.068Z,7.6
2022-11-14T09:00:01.145Z,7.5
2022-11-14T09:05:03.351Z,7.5
2022-11-14T09:10:05.655Z,7.4
2022-11-14T09:15:07.835Z,7.6
2022-11-14T09:20:10.345Z,7.6
2022-11-14T09:25:12.319Z,7.6
2022-11-14T09:30:14.447Z,7.9
2022-11-14T09:35:17.018Z,7.8
2022-11-14T09:40:19.714Z,7.7
2022-11-14T09:45:22.275Z,8.1
2022-11-14T09:50:28.161Z,8.4
2022-11-14T09:55:38.448Z,8.6
2022-11-14T10:00:30.609Z,8.5
2022-11-14T10:05:32.588Z,8.7
2022-11-14T10:10:40.359Z,8.7
2022-11-14T10:15:42.498Z,8.7
2022-11-14T10:20:45.088Z,8.6
2022-11-14T10:25:47.180Z,8.5
2022-11-14T10:30:49.766Z,8.6
2022-11-14T10:35:52.060Z,8.8
2022-11-14T10:40:54.208Z,8.8
2022-11-14T10:45:56.214Z,8.9
2022-11-14T10:50:58.853Z,8.8
2022-11-14T10:56:08.323Z,8.8
2022-11-14T11:01:10.910Z,9
2022-11-14T11:06:14.334Z,8.9
2022-11-14T11:11:16.242Z,8.9
2022-11-14T11:16:18.338Z,8.8
2022-11-14T11:21:20.489Z,8.9
2022-11-14T11:26:22.584Z,9.3
2022-11-14T11:31:24.493Z,9.3
2022-11-14T11:36:26.456Z,9.1
2022-11-14T11:42:11.572Z,9.3
2022-11-14T11:46:33.511Z,9.2
2022-11-14T11:51:35.961Z,9.1
2022-11-14T11:56:42.943Z,9
2022-11-14T12:01:44.909Z,9
2022-11-14T12:06:47.114Z,9.1
2022-11-14T12:11:50.011Z,9.2
2022-11-14T12:16:54.139Z,9.2
2022-11-14T12:22:00.641Z,8.9
2022-11-14T12:27:02.508Z,8.9
2022-11-14T12:32:04.552Z,8.9
2022-11-14T12:37:06.959Z,8.6
2022-11-14T12:42:09.603Z,8.6
2022-11-14T12:47:12.104Z,9
2022-11-14T12:52:14.586Z,9
2022-11-14T12:57:16.574Z,9
2022-11-14T13:02:24.675Z,8.6
2022-11-14T13:07:35.403Z,8.6
2022-11-14T13:12:27.550Z,8.5
2022-11-14T13:17:29.670Z,8.6
2022-11-14T13:22:31.706Z,8.6
2022-11-14T13:28:14.777Z,8.4
2022-11-14T13:32:36.332Z,8.3
2022-11-14T13:37:38.399Z,8.1
2022-11-14T13:42:40.686Z,7.9
2022-11-14T13:47:46.002Z,7.8
2022-11-14T13:52:48.079Z,7.8
2022-11-14T13:57:50.250Z,8
2022-11-14T14:02:52.215Z,8
2022-11-14T14:07:54.283Z,7.9
2022-11-14T14:12:56.424Z,7.9
2022-11-14T14:17:58.590Z,7.9
2022-11-14T14:23:00.694Z,7.9
2022-11-14T14:28:02.666Z,7.9
2022-11-14T14:33:04.695Z,7.9
2022-11-14T14:38:06.736Z,7.7
2022-11-14T14:43:09.122Z,7.8
2022-11-14T14:48:11.195Z,7.7
2022-11-14T14:53:13.981Z,7.5
2022-11-14T14:58:31.982Z,7.5
2022-11-14T15:03:25.239Z,7.4
2022-11-14T15:08:28.575Z,7.4
2022-11-14T15:13:31.336Z,7.3
2022-11-14T15:18:36.494Z,7.2
2022-11-14T15:23:39.371Z,7.5
2022-11-14T15:28:41.480Z,7.4
2022-11-14T15:33:46.991Z,7.2
2022-11-14T15:38:49.755Z,7.1
2022-11-14T15:43:52.097Z,7.1
2022-11-14T15:48:54.139Z,7.1
2022-11-14T15:53:56.818Z,6.9
2022-11-14T15:58:58.738Z,6.9
2022-11-14T16:04:07.535Z,7
2022-11-14T16:09:09.813Z,7
2022-11-14T16:14:11.939Z,7.1
2022-11-14T16:19:14.389Z,7.1
2022-11-14T16:24:16.867Z,7.1
2022-11-14T16:29:20.211Z,7
2022-11-14T16:34:22.693Z,6.9
2022-11-14T16:39:24.697Z,7
2022-11-14T16:44:27.194Z,6.9
2022-11-14T16:49:29.446Z,6.8
2022-11-14T16:54:31.714Z,6.8
2022-11-14T16:59:33.778Z,6.9
2022-11-14T17:04:35.866Z,6.9
2022-11-14T17:09:38.329Z,6.9
2022-11-14T17:14:40.823Z,7
2022-11-14T17:19:43.830Z,7.1
2022-11-14T17:24:46.317Z,7.1
2022-11-14T17:29:48.351Z,7.1
2022-11-14T17:34:50.405Z,7.1
2022-11-14T17:39:52.857Z,7.2
2022-11-14T17:44:54.993Z,7.2
2022-11-14T17:49:56.968Z,7.2
2022-11-14T17:54:59.114Z,7.2
2022-11-14T18:00:01.254Z,7.2
2022-11-14T18:05:03.495Z,7.1
2022-11-14T18:10:05.513Z,7
2022-11-14T18:15:07.615Z,7
2022-11-14T18:20:09.819Z,6.9
2022-11-14T18:25:11.842Z,6.8
2022-11-14T18:30:41.905Z,6.9
2022-11-14T18:35:14.342Z,6.9
2022-11-14T18:40:18.722Z,6.9
2022-11-14T18:45:20.825Z,6.8
2022-11-14T18:50:22.906Z,6.8
2022-11-14T18:55:24.940Z,6.9
2022-11-14T19:00:27.300Z,6.8
2022-11-14T19:05:29.472Z,6.7
2022-11-14T19:10:31.596Z,6.6
2022-11-14T19:15:33.573Z,6.4
2022-11-14T19:20:35.505Z,6.5
2022-11-14T19:25:39.989Z,6.5
2022-11-14T19:30:42.020Z,6.5
2022-11-14T19:35:44.163Z,6.5
2022-11-14T19:40:46.174Z,6.4
2022-11-14T19:45:48.597Z,6.4
2022-11-14T19:50:50.630Z,6.2
2022-11-14T19:55:53.656Z,6.1
2022-11-14T20:00:56.432Z,6.2
2022-11-14T20:05:58.700Z,6.2
2022-11-14T20:11:01.327Z,6.1
2022-11-14T20:16:03.903Z,6
2022-11-14T20:21:05.957Z,6
2022-11-14T20:26:14.329Z,6.1
2022-11-14T20:31:16.354Z,6
2022-11-14T20:36:18.335Z,6.1
2022-11-14T20:41:20.331Z,6
2022-11-14T20:46:22.827Z,5.9
2022-11-14T20:51:25.430Z,6
2022-11-14T20:56:27.481Z,5.9
2022-11-14T21:01:29.551Z,5.9
2022-11-14T21:06:31.799Z,5.9
2022-11-14T21:11:34.211Z,6
2022-11-14T21:16:36.225Z,6
2022-11-14T21:21:38.170Z,6.1
2022-11-14T21:26:40.170Z,6
2022-11-14T21:31:42.222Z,5.9
2022-11-14T21:36:48.614Z,5.8
2022-11-14T21:41:51.494Z,5.7
2022-11-14T21:46:53.554Z,5.7
2022-11-14T21:51:55.504Z,5.7
2022-11-14T21:56:57.609Z,5.8
2022-11-14T22:02:00.180Z,5.8
2022-11-14T22:07:02.465Z,5.7
2022-11-14T22:12:05.114Z,5.7
2022-11-14T22:17:07.235Z,5.7
2022-11-14T22:22:09.626Z,5.7
2022-11-14T22:27:11.754Z,5.6
2022-11-14T22:32:13.789Z,5.5
2022-11-14T22:37:15.808Z,5.6
2022-11-14T22:42:18.214Z,5.6
2022-11-14T22:47:20.596Z,5.6
2022-11-14T22:52:22.641Z,5.5
2022-11-14T22:57:24.765Z,5.5
2022-11-14T23:02:26.787Z,5.5
2022-11-14T23:07:29.064Z,5.5
2022-11-14T23:12:31.194Z,5.5
2022-11-14T23:17:33.212Z,5.5
2022-11-14T23:22:35.193Z,5.4
2022-11-14T23:27:37.565Z,5.4
2022-11-14T23:32:39.574Z,5.4
2022-11-14T23:37:41.521Z,5.3
2022-11-14T23:42:44.000Z,5.3
2022-11-14T23:47:46.033Z,5.3
2022-11-14T23:52:48.061Z,5.3
2022-11-14T23:57:50.766Z,5.4
